Time;durP1;ratioP1;P1;durP2;ratioP2;P2;SDS_P1;SDS_P2;PMS_P1;PMS_P2;Temp;Humidity;BMP_temperature;BMP_pressure;BME280_temperature;BME280_humidity;BME280_pressure;Samples;Min_cycle;Max_cycle;Signal;HPM_P1;HPM_P2
2023/01/30 00:00:41;;;;;;;37.33;16.03;;;;;-0.60;96676.00;;;;8365280;28;20279;-80
2023/01/30 00:04:45;;;;;;;30.40;13.73;;;;;-0.50;96686.00;;;;8365245;28;20224;-80
2023/01/30 00:08:49;;;;;;;34.47;15.53;;;;;-0.40;96669.00;;;;8364982;28;20231;-79
2023/01/30 00:12:56;;;;;;;37.07;16.03;;;;;-0.30;96675.00;;;;8364630;28;20197;-80
2023/01/30 00:16:59;;;;;;;38.23;16.40;;;;;-0.30;96653.00;;;;8364004;28;20264;-79
2023/01/30 00:21:05;;;;;;;34.87;15.23;;;;;-0.20;96644.00;;;;8365375;28;20204;-82
2023/01/30 00:25:10;;;;;;;30.43;13.93;;;;;-0.20;96655.00;;;;8363519;28;20247;-82
2023/01/30 00:29:13;;;;;;;35.30;16.00;;;;;-0.20;96649.00;;;;8364693;28;20203;-84
2023/01/30 00:33:17;;;;;;;39.83;15.70;;;;;-0.20;96645.00;;;;8363839;28;20196;-79
2023/01/30 00:37:20;;;;;;;31.33;14.10;;;;;-0.20;96630.00;;;;8363001;28;20226;-80
2023/01/30 00:47:03;;;;;;;39.43;15.83;;;;;-0.20;96622.00;;;;8363524;28;20189;-79
2023/01/30 00:50:14;;;;;;;27.13;12.80;;;;;-0.20;96611.00;;;;8364495;28;20263;-79
2023/01/30 00:54:23;;;;;;;34.43;14.20;;;;;-0.20;96608.00;;;;8363755;28;20233;-80
2023/01/30 00:58:30;;;;;;;32.90;14.40;;;;;-0.20;96589.00;;;;8363344;28;20270;-79
2023/01/30 01:02:34;;;;;;;30.77;14.13;;;;;-0.20;96588.00;;;;8363765;28;20256;-79
2023/01/30 01:06:38;;;;;;;33.50;13.53;;;;;-0.20;96580.00;;;;8364034;28;20627;-79
2023/01/30 01:10:41;;;;;;;22.00;10.77;;;;;-0.20;96573.00;;;;8363586;28;20196;-79
2023/01/30 01:14:46;;;;;;;36.43;15.50;;;;;-0.20;96579.00;;;;8363367;28;20630;-79
2023/01/30 01:18:54;;;;;;;24.93;11.00;;;;;-0.30;96569.00;;;;8363797;28;20638;-78
2023/01/30 01:22:58;;;;;;;31.60;13.53;;;;;-0.40;96578.00;;;;8363778;28;20198;-77
2023/01/30 01:27:01;;;;;;;31.90;13.70;;;;;-0.50;96577.00;;;;8363961;28;20189;-79
2023/01/30 01:31:10;;;;;;;29.17;13.53;;;;;-0.60;96583.00;;;;8345360;28;20189;-79
2023/01/30 01:35:13;;;;;;;26.90;12.23;;;;;-0.70;96595.00;;;;8363919;28;20200;-78
2023/01/30 01:39:19;;;;;;;32.00;14.77;;;;;-0.80;96604.00;;;;8363966;28;20228;-78
2023/01/30 01:43:29;;;;;;;27.47;12.77;;;;;-0.80;96619.00;;;;8345264;28;20625;-78
2023/01/30 01:47:34;;;;;;;26.50;12.97;;;;;-0.60;96628.00;;;;8363225;28;20188;-78
2023/01/30 01:51:45;;;;;;;26.57;12.63;;;;;-0.40;96643.00;;;;8362878;28;20331;-78
2023/01/30 01:55:51;;;;;;;27.77;13.13;;;;;-0.30;96623.00;;;;8366586;28;20720;-78
2023/01/30 02:00:00;;;;;;;33.07;14.27;;;;;-0.30;96616.00;;;;8369131;28;20638;-78
2023/01/30 02:04:09;;;;;;;31.03;13.27;;;;;-0.20;96599.00;;;;8366144;28;20323;-78
2023/01/30 02:08:14;;;;;;;29.27;13.73;;;;;-0.30;96586.00;;;;8369314;28;20193;-78
2023/01/30 02:12:19;;;;;;;34.17;14.93;;;;;-0.20;96599.00;;;;8367861;28;20189;-78
2023/01/30 02:16:24;;;;;;;30.47;14.43;;;;;-0.20;96606.00;;;;8368383;28;20216;-77
2023/01/30 02:20:40;;;;;;;31.47;15.00;;;;;-0.20;96601.00;;;;8367470;28;20243;-78
2023/01/30 02:25:20;;;;;;;28.60;13.53;;;;;-0.20;96596.00;;;;8368690;28;20189;-78
2023/01/30 02:30:21;;;;;;;28.50;12.47;;;;;-0.20;96583.00;;;;8367506;28;20232;-78
2023/01/30 02:34:44;;;;;;;30.60;12.80;;;;;-0.10;96567.00;;;;8368526;28;20286;-78
2023/01/30 02:38:58;;;;;;;30.40;14.13;;;;;-0.20;96560.00;;;;8367365;28;20231;-78
2023/01/30 02:43:13;;;;;;;31.43;13.90;;;;;-0.20;96558.00;;;;8369072;28;20649;-78
2023/01/30 02:47:24;;;;;;;27.37;12.63;;;;;-0.20;96561.00;;;;8366060;28;20188;-78
2023/01/30 02:51:31;;;;;;;31.37;14.37;;;;;-0.20;96551.00;;;;8368763;28;20247;-78
2023/01/30 02:55:40;;;;;;;31.77;14.67;;;;;-0.20;96548.00;;;;8365541;28;20197;-78
2023/01/30 02:59:49;;;;;;;29.40;13.07;;;;;-0.30;96551.00;;;;8367719;28;20621;-78
2023/01/30 03:04:07;;;;;;;27.57;13.50;;;;;-0.30;96539.00;;;;8417480;22;20235;-78
2023/01/30 03:08:24;;;;;;;25.33;11.43;;;;;-0.40;96527.00;;;;8404734;28;20621;-79
2023/01/30 03:12:40;;;;;;;26.43;11.80;;;;;-0.40;96494.00;;;;8405894;28;21273;-79
2023/01/30 03:16:44;;;;;;;28.70;13.97;;;;;-0.50;96495.00;;;;8433216;28;20253;-78
2023/01/30 03:20:48;;;;;;;23.67;10.73;;;;;-0.40;96439.00;;;;8445288;28;20195;-79
2023/01/30 03:24:54;;;;;;;21.00;11.20;;;;;-0.40;96430.00;;;;8446371;28;20240;-78
2023/01/30 03:28:57;;;;;;;28.43;13.43;;;;;-0.50;96494.00;;;;8443762;28;20719;-78
2023/01/30 03:33:00;;;;;;;23.73;11.83;;;;;-0.40;96496.00;;;;8441598;28;20206;-77
2023/01/30 03:37:04;;;;;;;28.33;13.43;;;;;-0.30;96485.00;;;;8438209;28;20710;-78
2023/01/30 03:41:09;;;;;;;26.43;12.03;;;;;-0.20;96505.00;;;;8427509;28;20245;-77
2023/01/30 03:45:15;;;;;;;24.83;12.70;;;;;-0.10;96511.00;;;;8445895;28;20195;-77
2023/01/30 03:49:19;;;;;;;32.63;12.97;;;;;0.00;96488.00;;;;8439565;28;20226;-77
2023/01/30 03:53:25;;;;;;;25.30;11.27;;;;;0.00;96454.00;;;;8444048;28;20823;-77
2023/01/30 03:57:30;;;;;;;22.27;11.43;;;;;0.10;96452.00;;;;8440060;28;20306;-76
2023/01/30 04:01:33;;;;;;;24.93;12.77;;;;;0.10;96430.00;;;;8430027;28;20228;-77
2023/01/30 04:05:37;;;;;;;26.53;12.73;;;;;0.10;96410.00;;;;8401082;28;20207;-77
2023/01/30 04:09:41;;;;;;;20.87;10.50;;;;;0.10;96388.00;;;;8402327;28;20196;-77
2023/01/30 04:13:46;;;;;;;23.40;10.23;;;;;0.10;96381.00;;;;8407028;28;20201;-79
2023/01/30 04:17:52;;;;;;;19.70;10.23;;;;;0.10;96384.00;;;;8400898;28;20228;-80
2023/01/30 04:21:55;;;;;;;14.57;6.93;;;;;0.10;96400.00;;;;8404653;28;20192;-80
2023/01/30 04:25:58;;;;;;;21.03;9.20;;;;;0.10;96391.00;;;;8398154;28;20204;-80
2023/01/30 04:30:03;;;;;;;24.57;11.47;;;;;0.10;96380.00;;;;8410630;28;20211;-79
2023/01/30 04:34:08;;;;;;;23.73;9.87;;;;;0.10;96394.00;;;;8406043;28;20666;-79
2023/01/30 04:38:11;;;;;;;26.77;12.27;;;;;0.10;96380.00;;;;8410389;28;20234;-80
2023/01/30 04:42:18;;;;;;;23.93;9.77;;;;;0.00;96379.00;;;;8402555;28;20191;-78
2023/01/30 04:46:23;;;;;;;26.20;11.87;;;;;0.00;96382.00;;;;8397892;28;20195;-80
2023/01/30 04:50:28;;;;;;;13.53;7.83;;;;;0.00;96377.00;;;;8404285;28;20257;-80
2023/01/30 04:54:35;;;;;;;22.60;10.50;;;;;0.00;96376.00;;;;8394341;28;20203;-79
2023/01/30 04:58:38;;;;;;;20.17;10.10;;;;;0.00;96385.00;;;;8403498;28;20227;-80
2023/01/30 05:02:43;;;;;;;20.00;8.57;;;;;0.10;96373.00;;;;8409021;28;20223;-79
2023/01/30 05:06:47;;;;;;;21.20;11.13;;;;;0.10;96383.00;;;;8394963;28;20314;-80
2023/01/30 05:10:52;;;;;;;23.03;10.50;;;;;0.20;96379.00;;;;8385348;28;20199;-79
2023/01/30 05:15:07;;;;;;;23.43;11.20;;;;;0.20;96384.00;;;;8373847;28;20206;-81
2023/01/30 05:19:12;;;;;;;21.07;10.53;;;;;0.20;96387.00;;;;8385511;28;20226;-85
2023/01/30 05:23:15;;;;;;;20.93;10.00;;;;;0.20;96377.00;;;;8388928;28;20600;-82
2023/01/30 05:27:19;;;;;;;20.93;9.37;;;;;0.30;96380.00;;;;8401488;28;20196;-81
2023/01/30 05:31:25;;;;;;;16.27;9.03;;;;;0.30;96402.00;;;;8403096;28;20637;-81
2023/01/30 05:35:32;;;;;;;23.60;11.73;;;;;0.20;96397.00;;;;8409739;28;20207;-77
2023/01/30 05:39:36;;;;;;;23.43;11.60;;;;;0.30;96401.00;;;;8397767;28;20268;-81
2023/01/30 05:43:39;;;;;;;21.70;10.77;;;;;0.20;96399.00;;;;8403686;28;20645;-82
2023/01/30 05:47:42;;;;;;;22.80;10.83;;;;;0.20;96395.00;;;;8407870;28;20636;-84
2023/01/30 05:51:54;;;;;;;22.60;10.70;;;;;0.20;96374.00;;;;8404722;28;20645;-81
2023/01/30 05:56:00;;;;;;;26.90;11.70;;;;;0.20;96363.00;;;;8406025;28;20279;-84
2023/01/30 06:00:06;;;;;;;22.63;8.70;;;;;0.10;96356.00;;;;8397826;28;20709;-84
2023/01/30 06:04:09;;;;;;;19.43;9.37;;;;;0.10;96363.00;;;;8405560;28;20276;-85
2023/01/30 06:08:17;;;;;;;21.87;10.97;;;;;0.10;96359.00;;;;8401856;28;20195;-81
2023/01/30 06:12:20;;;;;;;22.43;11.07;;;;;0.10;96356.00;;;;8384980;28;20594;-81
2023/01/30 06:16:23;;;;;;;27.50;12.33;;;;;0.10;96338.00;;;;8388146;28;20204;-83
2023/01/30 06:20:26;;;;;;;24.47;10.80;;;;;0.10;96324.00;;;;8400080;28;20228;-79
2023/01/30 06:24:34;;;;;;;18.67;8.73;;;;;0.10;96337.00;;;;8409694;28;20564;-80
2023/01/30 06:28:37;;;;;;;22.50;10.77;;;;;0.10;96330.00;;;;8403645;28;20200;-81
2023/01/30 06:32:44;;;;;;;20.50;10.30;;;;;0.10;96328.00;;;;8392516;28;20898;-80
2023/01/30 06:36:47;;;;;;;21.87;10.00;;;;;0.20;96322.00;;;;8390134;28;20207;-80
2023/01/30 06:40:53;;;;;;;19.23;9.23;;;;;0.30;96330.00;;;;8401002;28;20193;-81
2023/01/30 06:44:57;;;;;;;12.50;6.53;;;;;0.40;96332.00;;;;8402913;28;20200;-80
2023/01/30 06:49:00;;;;;;;17.33;9.07;;;;;0.50;96331.00;;;;8401201;28;20192;-80
2023/01/30 06:53:07;;;;;;;18.63;9.27;;;;;0.60;96321.00;;;;8407062;28;20544;-82
2023/01/30 06:57:14;;;;;;;8.17;5.50;;;;;0.70;96338.00;;;;8402698;28;20227;-82
2023/01/30 07:01:20;;;;;;;20.53;9.53;;;;;0.70;96331.00;;;;8383884;28;20239;-80
2023/01/30 07:05:23;;;;;;;17.97;9.57;;;;;0.70;96327.00;;;;8405085;28;20200;-79
2023/01/30 07:09:28;;;;;;;19.77;9.07;;;;;0.60;96331.00;;;;8387210;28;20192;-77
2023/01/30 07:13:33;;;;;;;19.70;9.00;;;;;0.60;96331.00;;;;8406068;28;20450;-78
2023/01/30 07:17:43;;;;;;;18.70;9.13;;;;;0.60;96341.00;;;;8405562;28;20227;-77
2023/01/30 07:21:49;;;;;;;14.37;6.87;;;;;0.60;96322.00;;;;8404958;28;20280;-78
2023/01/30 07:25:52;;;;;;;19.07;9.23;;;;;0.60;96318.00;;;;8412375;28;20268;-78
2023/01/30 07:30:00;;;;;;;18.10;8.50;;;;;0.60;96312.00;;;;8405188;28;20196;-77
2023/01/30 07:34:03;;;;;;;18.40;9.00;;;;;0.60;96301.00;;;;8387862;28;20663;-78
2023/01/30 07:38:06;;;;;;;21.37;10.07;;;;;0.60;96316.00;;;;8399460;28;20297;-77
2023/01/30 07:42:09;;;;;;;22.07;9.63;;;;;0.70;96310.00;;;;8415026;28;20204;-80
2023/01/30 07:46:14;;;;;;;22.30;9.67;;;;;0.70;96313.00;;;;8389607;28;20195;-79
2023/01/30 07:50:17;;;;;;;23.63;9.90;;;;;0.80;96309.00;;;;8402149;28;20265;-78
2023/01/30 07:54:21;;;;;;;14.00;7.30;;;;;0.90;96302.00;;;;8411314;28;20195;-78
2023/01/30 07:58:24;;;;;;;23.53;10.57;;;;;1.00;96303.00;;;;8384120;28;20673;-78
2023/01/30 08:02:29;;;;;;;17.80;8.47;;;;;1.10;96317.00;;;;8404573;28;20224;-77
2023/01/30 08:06:37;;;;;;;20.53;9.53;;;;;1.20;96308.00;;;;8401059;28;20208;-77
2023/01/30 08:10:41;;;;;;;21.43;9.70;;;;;1.30;96311.00;;;;8406856;28;20197;-76
2023/01/30 08:14:44;;;;;;;19.80;9.77;;;;;1.30;96311.00;;;;8401063;28;20276;-76
2023/01/30 08:18:49;;;;;;;19.97;9.63;;;;;1.30;96305.00;;;;8399667;28;20222;-76
2023/01/30 08:22:54;;;;;;;19.73;9.37;;;;;1.40;96308.00;;;;8398403;28;20743;-75
2023/01/30 08:26:57;;;;;;;22.17;10.00;;;;;1.40;96295.00;;;;8391137;28;21093;-76
2023/01/30 08:31:00;;;;;;;20.37;9.67;;;;;1.60;96298.00;;;;8406977;28;20293;-76
2023/01/30 08:35:07;;;;;;;19.13;10.17;;;;;1.70;96282.00;;;;8399777;28;20249;-76
2023/01/30 08:39:11;;;;;;;19.40;9.47;;;;;1.70;96277.00;;;;8398428;28;20281;-76
2023/01/30 08:43:14;;;;;;;19.80;9.17;;;;;1.80;96270.00;;;;8398622;28;20231;-76
2023/01/30 08:47:17;;;;;;;22.90;10.13;;;;;1.90;96266.00;;;;8395503;28;20200;-76
2023/01/30 08:51:24;;;;;;;26.47;12.27;;;;;2.00;96272.00;;;;8397063;28;20680;-76
2023/01/30 08:55:27;;;;;;;32.03;14.17;;;;;2.10;96260.00;;;;8402957;28;20267;-76
2023/01/30 08:59:32;;;;;;;91.40;39.80;;;;;2.20;96260.00;;;;8398888;28;20236;-80
2023/01/30 09:03:39;;;;;;;21.53;10.47;;;;;2.30;96267.00;;;;8400041;28;20240;-77
2023/01/30 09:07:48;;;;;;;22.37;11.83;;;;;2.60;96262.00;;;;8405586;28;20293;-77
2023/01/30 09:11:52;;;;;;;18.27;9.93;;;;;2.90;96245.00;;;;8383765;28;20261;-77
2023/01/30 09:15:55;;;;;;;20.33;11.10;;;;;3.00;96245.00;;;;8400457;28;20194;-77
2023/01/30 09:19:58;;;;;;;16.00;9.43;;;;;3.10;96244.00;;;;8404410;28;20297;-79
2023/01/30 09:24:03;;;;;;;19.90;10.03;;;;;3.10;96243.00;;;;8406374;28;20259;-75
2023/01/30 09:28:06;;;;;;;20.87;12.73;;;;;3.20;96238.00;;;;8403771;28;20676;-75
2023/01/30 09:32:10;;;;;;;17.40;9.77;;;;;3.10;96239.00;;;;8401328;28;20202;-75
2023/01/30 09:36:16;;;;;;;23.07;13.80;;;;;3.10;96245.00;;;;8406741;28;20206;-76
2023/01/30 09:40:24;;;;;;;18.93;10.63;;;;;3.10;96241.00;;;;8407744;28;20692;-78
2023/01/30 09:44:59;;;;;;;19.40;13.90;;;;;3.10;96238.00;;;;8398559;28;20310;-80
2023/01/30 09:49:16;;;;;;;35.67;21.27;;;;;3.00;96231.00;;;;8385075;28;20639;-82
2023/01/30 09:53:25;;;;;;;113.83;64.97;;;;;3.00;96230.00;;;;8408529;28;20247;-81
2023/01/30 09:57:41;;;;;;;122.07;68.57;;;;;2.90;96216.00;;;;8389949;28;20260;-82
2023/01/30 10:01:51;;;;;;;36.97;23.03;;;;;2.90;96219.00;;;;8398717;28;20235;-84
2023/01/30 10:05:58;;;;;;;18.60;12.10;;;;;2.70;96191.00;;;;8387031;28;20198;-81
2023/01/30 10:10:10;;;;;;;60.23;50.97;;;;;2.60;96195.00;;;;8400983;28;20320;-78
2023/01/30 10:14:46;;;;;;;45.00;34.70;;;;;2.50;96191.00;;;;8395083;28;20196;-77
2023/01/30 10:18:59;;;;;;;17.43;8.73;;;;;2.40;96185.00;;;;8392517;28;20221;-74
2023/01/30 10:23:43;;;;;;;16.40;8.37;;;;;2.40;96186.00;;;;8406953;28;20205;-74
2023/01/30 10:27:53;;;;;;;13.50;6.63;;;;;2.30;96190.00;;;;8403566;28;21097;-74
2023/01/30 10:32:07;;;;;;;14.73;7.03;;;;;2.30;96183.00;;;;8425913;28;20197;-75
2023/01/30 10:36:13;;;;;;;17.83;8.57;;;;;2.40;96174.00;;;;8434092;28;20193;-74
2023/01/30 10:40:23;;;;;;;19.00;9.07;;;;;2.40;96162.00;;;;8434638;28;20282;-73
2023/01/30 10:44:26;;;;;;;18.47;8.30;;;;;2.40;96162.00;;;;8435032;28;20566;-72
2023/01/30 10:48:58;;;;;;;13.03;6.50;;;;;2.40;96151.00;;;;8433720;28;20242;-72
2023/01/30 10:53:08;;;;;;;15.93;7.90;;;;;2.40;96148.00;;;;8433823;28;20194;-71
2023/01/30 10:57:23;;;;;;;15.77;7.60;;;;;2.40;96138.00;;;;8434245;28;20215;-71
2023/01/30 11:01:33;;;;;;;11.97;6.90;;;;;2.40;96130.00;;;;8434414;28;20236;-71
2023/01/30 11:05:45;;;;;;;11.17;6.00;;;;;2.40;96147.00;;;;8433621;28;20190;-70
2023/01/30 11:09:49;;;;;;;29.93;13.20;;;;;2.40;96147.00;;;;8433607;28;20229;-72
2023/01/30 11:14:03;;;;;;;108.57;37.30;;;;;2.40;96136.00;;;;8432633;28;20248;-72
2023/01/30 11:18:07;;;;;;;595.63;176.83;;;;;2.50;96141.00;;;;8433722;28;20607;-73
2023/01/30 11:22:34;;;;;;;512.67;311.20;;;;;2.50;96138.00;;;;8432888;28;20194;-73
2023/01/30 11:26:43;;;;;;;16.53;9.50;;;;;2.50;96127.00;;;;8415842;28;20182;-74
2023/01/30 11:30:54;;;;;;;15.50;7.77;;;;;2.50;96125.00;;;;8433266;28;20620;-74
2023/01/30 11:35:22;;;;;;;9.97;6.23;;;;;2.50;96112.00;;;;8415306;28;20243;-73
2023/01/30 11:39:33;;;;;;;16.53;10.77;;;;;2.60;96120.00;;;;8431844;28;20226;-74
2023/01/30 11:43:39;;;;;;;13.73;8.60;;;;;2.60;96135.00;;;;8433148;28;20189;-73
2023/01/30 11:47:49;;;;;;;17.13;12.07;;;;;2.60;96130.00;;;;8432447;28;20198;-73
2023/01/30 11:52:00;;;;;;;12.10;7.50;;;;;2.50;96129.00;;;;8433906;28;20201;-73
2023/01/30 11:56:17;;;;;;;27.20;17.70;;;;;2.60;96121.00;;;;8431932;28;20258;-74
2023/01/30 12:00:28;;;;;;;14.30;6.93;;;;;2.60;96117.00;;;;8433032;28;20307;-73
2023/01/30 12:04:31;;;;;;;14.60;6.80;;;;;2.60;96118.00;;;;8433063;28;20215;-73
2023/01/30 12:08:38;;;;;;;12.07;6.57;;;;;2.60;96115.00;;;;8431405;28;20241;-74
2023/01/30 12:12:53;;;;;;;11.07;5.83;;;;;2.60;96098.00;;;;8432249;28;20196;-74
2023/01/30 12:17:08;;;;;;;13.03;6.73;;;;;2.60;96090.00;;;;8413303;28;20198;-74
2023/01/30 12:21:23;;;;;;;15.67;6.87;;;;;2.70;96097.00;;;;8431160;28;20223;-73
2023/01/30 12:25:34;;;;;;;9.27;5.90;;;;;2.70;96091.00;;;;8431431;28;20220;-73
2023/01/30 12:29:54;;;;;;;10.47;5.70;;;;;2.70;96099.00;;;;8431046;28;20206;-73
2023/01/30 12:34:01;;;;;;;11.80;6.17;;;;;2.70;96096.00;;;;8431637;28;20186;-73
2023/01/30 12:38:14;;;;;;;9.93;5.40;;;;;2.60;96085.00;;;;8431570;28;20546;-74
2023/01/30 12:42:48;;;;;;;113.30;49.57;;;;;2.60;96093.00;;;;8430313;28;20279;-74
2023/01/30 12:47:06;;;;;;;12.93;6.83;;;;;2.60;96094.00;;;;8431698;28;20196;-74
2023/01/30 12:51:27;;;;;;;11.97;5.87;;;;;2.70;96101.00;;;;8431094;28;20527;-74
2023/01/30 12:55:42;;;;;;;16.27;10.67;;;;;2.60;96098.00;;;;8430279;28;20293;-74
2023/01/30 13:00:00;;;;;;;22.83;16.00;;;;;2.70;96091.00;;;;8431409;28;20238;-76
2023/01/30 13:04:16;;;;;;;7.60;5.43;;;;;2.70;96112.00;;;;8431435;28;20268;-75
2023/01/30 13:08:56;;;;;;;11.37;10.03;;;;;2.70;96116.00;;;;8430219;28;20232;-73
2023/01/30 13:13:10;;;;;;;4.03;3.63;;;;;2.80;96127.00;;;;8430440;28;20241;-74
2023/01/30 13:17:31;;;;;;;4.73;4.10;;;;;2.70;96125.00;;;;8429784;28;20277;-75
2023/01/30 13:21:45;;;;;;;3.97;3.23;;;;;2.80;96123.00;;;;8430432;28;20229;-72
2023/01/30 13:25:58;;;;;;;4.30;3.27;;;;;2.80;96141.00;;;;8430254;28;20196;-82
2023/01/30 13:30:09;;;;;;;4.17;3.40;;;;;2.80;96132.00;;;;8430384;28;20198;-80
2023/01/30 13:34:22;;;;;;;5.07;3.33;;;;;3.00;96130.00;;;;8412739;28;20243;-78
2023/01/30 13:38:33;;;;;;;8.97;4.87;;;;;3.10;96131.00;;;;8429290;28;20434;-76
2023/01/30 13:42:44;;;;;;;6.23;4.10;;;;;3.20;96118.00;;;;8429836;28;20227;-75
2023/01/30 13:46:59;;;;;;;9.83;5.63;;;;;3.20;96108.00;;;;8430462;28;20628;-77
2023/01/30 13:51:22;;;;;;;5.17;3.63;;;;;3.20;96108.00;;;;8431269;28;20635;-75
2023/01/30 13:55:32;;;;;;;7.13;4.43;;;;;3.30;96118.00;;;;8435631;28;20236;-77
2023/01/30 14:00:02;;;;;;;7.10;4.23;;;;;3.30;96135.00;;;;8435524;28;20343;-74
2023/01/30 14:04:38;;;;;;;8.83;4.93;;;;;3.40;96129.00;;;;8435008;28;20288;-75
2023/01/30 14:08:58;;;;;;;9.63;5.40;;;;;3.40;96132.00;;;;8435730;28;20304;-75
2023/01/30 14:13:08;;;;;;;9.33;5.17;;;;;3.40;96127.00;;;;8434991;28;20203;-74
2023/01/30 14:17:18;;;;;;;23.83;10.73;;;;;3.40;96127.00;;;;8434622;28;20242;-75
2023/01/30 14:21:27;;;;;;;21.07;9.70;;;;;3.40;96142.00;;;;8436045;28;20663;-75
2023/01/30 14:25:50;;;;;;;26.90;10.87;;;;;3.30;96127.00;;;;8435036;28;20195;-74
2023/01/30 14:29:58;;;;;;;17.53;9.23;;;;;3.30;96113.00;;;;8435502;28;20194;-74
2023/01/30 14:34:02;;;;;;;9.50;6.43;;;;;3.30;96133.00;;;;8434415;28;20193;-73
2023/01/30 14:38:14;;;;;;;5.63;3.90;;;;;3.30;96135.00;;;;8433710;28;20589;-71
2023/01/30 14:42:23;;;;;;;8.77;5.43;;;;;3.40;96124.00;;;;8434296;28;20251;-70
2023/01/30 14:46:48;;;;;;;6.97;4.43;;;;;3.40;96148.00;;;;8433948;28;20242;-74
2023/01/30 14:51:23;;;;;;;5.40;4.03;;;;;3.50;96159.00;;;;8434531;28;20577;-74
2023/01/30 14:55:29;;;;;;;6.57;4.47;;;;;3.50;96184.00;;;;8434034;28;20242;-73
2023/01/30 14:59:36;;;;;;;8.97;4.30;;;;;3.50;96183.00;;;;8435224;28;20406;-73
2023/01/30 15:03:42;;;;;;;6.07;4.30;;;;;3.60;96186.00;;;;8416129;28;20731;-73
2023/01/30 15:07:48;;;;;;;5.87;3.50;;;;;3.60;96196.00;;;;8433424;28;20541;-73
2023/01/30 15:12:01;;;;;;;5.30;3.60;;;;;3.60;96206.00;;;;8433456;28;20285;-72
2023/01/30 15:16:20;;;;;;;6.63;3.70;;;;;3.60;96219.00;;;;8432255;28;20197;-72
2023/01/30 15:25:22;;;;;;;7.17;3.83;;;;;3.60;96217.00;;;;8460018;27;20562;-73
2023/01/30 15:29:59;;;;;;;6.53;3.23;;;;;3.60;96228.00;;;;8461277;28;20193;-70
2023/01/30 15:34:04;;;;;;;4.63;3.90;;;;;3.60;96220.00;;;;8461287;28;20197;-71
2023/01/30 15:38:27;;;;;;;6.83;4.00;;;;;3.50;96213.00;;;;8491667;27;20180;-71
2023/01/30 15:42:31;;;;;;;5.03;4.13;;;;;3.50;96219.00;;;;8459347;28;20220;-71
2023/01/30 15:46:46;;;;;;;7.40;4.37;;;;;3.30;96234.00;;;;8459567;28;20269;-70
2023/01/30 15:50:53;;;;;;;5.33;3.53;;;;;3.30;96248.00;;;;8459683;28;20588;-71
2023/01/30 15:55:00;;;;;;;8.73;3.63;;;;;3.30;96258.00;;;;8458975;28;20197;-70
2023/01/30 15:59:06;;;;;;;4.77;3.50;;;;;3.30;96252.00;;;;8458449;28;20198;-70
2023/01/30 16:03:15;;;;;;;4.30;3.20;;;;;3.30;96276.00;;;;8454220;28;20230;-71
2023/01/30 16:07:25;;;;;;;4.20;3.13;;;;;3.40;96285.00;;;;8459350;28;20243;-71
2023/01/30 16:11:34;;;;;;;4.30;3.47;;;;;3.40;96293.00;;;;8459107;28;20641;-72
2023/01/30 16:15:43;;;;;;;3.93;3.40;;;;;3.40;96289.00;;;;8459129;28;20193;-72
2023/01/30 16:19:46;;;;;;;3.87;3.10;;;;;3.40;96291.00;;;;8455356;28;20667;-72
2023/01/30 16:23:55;;;;;;;4.60;3.37;;;;;3.40;96294.00;;;;8458729;28;20262;-72
2023/01/30 16:28:01;;;;;;;3.67;2.93;;;;;3.40;96287.00;;;;8457766;28;20191;-72
2023/01/30 16:32:12;;;;;;;5.30;3.30;;;;;3.40;96299.00;;;;8458874;28;20192;-71
2023/01/30 16:36:38;;;;;;;7.03;3.47;;;;;3.40;96295.00;;;;8434945;28;20195;-71
2023/01/30 16:40:44;;;;;;;3.23;2.90;;;;;3.30;96303.00;;;;8434772;28;20213;-71
2023/01/30 16:44:50;;;;;;;5.17;3.67;;;;;3.30;96302.00;;;;8434929;27;20230;-71
2023/01/30 16:49:03;;;;;;;7.67;3.57;;;;;3.40;96329.00;;;;8435853;28;20532;-72
2023/01/30 16:53:14;;;;;;;5.97;3.80;;;;;3.40;96338.00;;;;8435432;28;20193;-72
2023/01/30 16:57:32;;;;;;;13.20;3.87;;;;;3.40;96328.00;;;;8431454;28;20506;-71
2023/01/30 17:01:40;;;;;;;6.30;4.13;;;;;3.40;96335.00;;;;8435574;28;20240;-72
2023/01/30 17:05:48;;;;;;;10.47;8.90;;;;;3.40;96344.00;;;;8434259;28;20253;-71
2023/01/30 17:09:56;;;;;;;6.23;4.83;;;;;3.40;96345.00;;;;8434550;28;20194;-71
2023/01/30 17:14:29;;;;;;;15.10;9.33;;;;;3.40;96346.00;;;;8434275;28;20189;-72
2023/01/30 17:18:34;;;;;;;10.63;6.90;;;;;3.50;96337.00;;;;8398127;28;20202;-72
2023/01/30 17:22:44;;;;;;;7.13;4.67;;;;;3.50;96339.00;;;;8434615;28;20668;-72
2023/01/30 17:26:49;;;;;;;11.43;5.67;;;;;3.50;96341.00;;;;8434012;28;20227;-72
2023/01/30 17:30:54;;;;;;;8.60;5.10;;;;;3.60;96357.00;;;;8434346;28;20641;-72
2023/01/30 17:34:58;;;;;;;9.50;5.30;;;;;3.60;96358.00;;;;8433418;28;20194;-74
2023/01/30 17:39:02;;;;;;;10.13;4.83;;;;;3.60;96376.00;;;;8433812;28;20248;-74
2023/01/30 17:43:11;;;;;;;5.80;4.27;;;;;3.60;96387.00;;;;8433042;28;20212;-73
2023/01/30 17:47:16;;;;;;;8.33;5.10;;;;;3.60;96381.00;;;;8431729;28;20243;-74
2023/01/30 17:51:20;;;;;;;8.97;4.63;;;;;3.70;96387.00;;;;8433329;28;20289;-74
2023/01/30 17:55:27;;;;;;;12.40;4.57;;;;;3.70;96398.00;;;;8433521;28;20236;-74
2023/01/30 17:59:33;;;;;;;6.87;4.33;;;;;3.70;96404.00;;;;8434090;28;20228;-74
2023/01/30 18:03:36;;;;;;;5.33;4.13;;;;;3.70;96415.00;;;;8432458;28;20229;-74
2023/01/30 18:07:40;;;;;;;8.10;3.97;;;;;3.70;96423.00;;;;8433319;28;20198;-74
2023/01/30 18:11:47;;;;;;;6.20;3.47;;;;;3.80;96404.00;;;;8432920;28;20445;-74
2023/01/30 18:16:02;;;;;;;6.10;3.30;;;;;3.80;96412.00;;;;8432935;28;20244;-74
2023/01/30 18:20:06;;;;;;;8.10;4.07;;;;;3.70;96406.00;;;;8432791;28;20622;-75
2023/01/30 18:24:12;;;;;;;5.40;3.93;;;;;3.70;96417.00;;;;8433016;28;20287;-75
2023/01/30 18:28:20;;;;;;;8.37;3.93;;;;;3.70;96416.00;;;;8432960;28;20232;-75
2023/01/30 18:32:23;;;;;;;11.53;4.67;;;;;3.70;96433.00;;;;8432964;28;20198;-75
2023/01/30 18:36:28;;;;;;;6.13;4.07;;;;;3.80;96439.00;;;;8432030;28;20191;-75
2023/01/30 18:40:32;;;;;;;9.33;4.10;;;;;3.80;96446.00;;;;8432503;28;20181;-75
2023/01/30 18:44:36;;;;;;;13.87;4.50;;;;;3.80;96453.00;;;;8426739;28;20222;-75
2023/01/30 18:48:40;;;;;;;12.90;4.30;;;;;3.70;96449.00;;;;8432057;28;20194;-76
2023/01/30 18:52:43;;;;;;;10.40;4.20;;;;;3.70;96463.00;;;;8430387;28;20200;-76
2023/01/30 18:56:48;;;;;;;6.97;4.00;;;;;3.70;96456.00;;;;8481436;27;20616;-72
2023/01/30 19:00:54;;;;;;;13.60;4.80;;;;;3.70;96468.00;;;;8498833;27;20234;-71
2023/01/30 19:04:57;;;;;;;6.93;4.07;;;;;3.70;96473.00;;;;8499235;27;20229;-71
2023/01/30 19:09:02;;;;;;;8.83;4.57;;;;;3.80;96485.00;;;;8498726;27;20294;-71
2023/01/30 19:17:26;;;;;;;10.80;4.83;;;;;3.70;96478.00;;;;8498194;27;20185;-71
2023/01/30 19:21:30;;;;;;;12.00;5.10;;;;;3.70;96475.00;;;;8498059;27;20205;-73
2023/01/30 19:25:33;;;;;;;9.67;4.23;;;;;3.70;96514.00;;;;8497225;28;20221;-74
2023/01/30 19:29:41;;;;;;;11.67;5.00;;;;;3.80;96494.00;;;;8497745;28;20246;-75
2023/01/30 19:33:53;;;;;;;9.43;4.53;;;;;3.80;96505.00;;;;8499853;28;20201;-75
2023/01/30 19:37:59;;;;;;;8.70;4.20;;;;;3.80;96506.00;;;;8499073;28;20624;-75
2023/01/30 19:42:03;;;;;;;6.43;4.10;;;;;3.80;96508.00;;;;8496982;28;20238;-75
2023/01/30 19:46:09;;;;;;;12.67;4.33;;;;;3.80;96515.00;;;;8498316;28;20231;-75
2023/01/30 19:50:14;;;;;;;9.20;3.70;;;;;3.80;96519.00;;;;8498528;28;20181;-72
2023/01/30 19:54:20;;;;;;;8.40;4.53;;;;;3.80;96532.00;;;;8499284;28;20201;-72
2023/01/30 19:58:26;;;;;;;8.77;4.10;;;;;3.80;96539.00;;;;8493122;28;20194;-71
2023/01/30 20:02:29;;;;;;;10.13;4.80;;;;;3.80;96534.00;;;;8498043;28;20263;-71
2023/01/30 20:06:37;;;;;;;11.83;5.20;;;;;3.80;96546.00;;;;8497378;28;20189;-71
2023/01/30 20:10:41;;;;;;;10.77;4.93;;;;;3.80;96545.00;;;;8503036;27;20234;-71
2023/01/30 20:14:46;;;;;;;7.53;4.27;;;;;3.90;96543.00;;;;8503150;27;20621;-71
2023/01/30 20:18:55;;;;;;;10.07;4.20;;;;;3.90;96551.00;;;;8503600;27;20225;-71
2023/01/30 20:23:04;;;;;;;7.73;4.17;;;;;3.90;96565.00;;;;8502620;27;20222;-72
2023/01/30 20:27:07;;;;;;;12.00;5.23;;;;;3.90;96554.00;;;;8501623;27;20223;-72
2023/01/30 20:31:12;;;;;;;7.93;3.83;;;;;3.90;96562.00;;;;8502081;27;20225;-72
2023/01/30 20:35:16;;;;;;;8.23;5.00;;;;;3.90;96572.00;;;;8502788;27;20625;-73
2023/01/30 20:39:22;;;;;;;10.37;4.97;;;;;3.90;96564.00;;;;8503974;27;20186;-72
2023/01/30 20:43:25;;;;;;;11.80;5.10;;;;;3.90;96574.00;;;;8503068;27;20603;-72
2023/01/30 20:47:28;;;;;;;11.37;5.30;;;;;3.90;96576.00;;;;8485220;27;20252;-73
2023/01/30 20:51:35;;;;;;;13.03;5.30;;;;;3.90;96576.00;;;;8503946;27;20265;-73